Thalia — FPCS — position and weather

sailwx.info

Track history (hours):
 
Tides and Currents Weather Stations Pressure Air Temp Water Temp Dewpoint Dewpoint Depression Visibility Wind Speed Wind Dir Waves Ship Positions

Oceanographic research ship Thalia (France)

Detailed information on ship capabilities available from University of Delaware's Ocean Information Center.

Last reported at 2017-Mar-20 09:29 UTC. Time now 2017-Mar-29 13:12 UTC.
Position N 48°05' W 004°43'.
Warning: this ship's position is 9 days out of date.

Length 25 m; beam 7 m.

MMSI: 227270000.

Date/timePositionNaut miles runAvg speedWind from/ knotsBaromVisibWave heightAir tempDewpointWater temp
2017-Mar-20 09:29N 48°05' W 004°43'10 9.9
2017-Mar-20 08:28N 48°07' W 004°28'5 0.5
2017-Mar-19 21:33N 48°06' W 004°20'0 0.0
2017-Mar-19 20:33N 48°06' W 004°20'0 0.0
2017-Mar-19 11:33N 48°06' W 004°20'0 0.0
2017-Mar-19 05:34N 48°06' W 004°20'0 0.0
2017-Mar-18 21:33N 48°06' W 004°20'2 0.2
2017-Mar-18 13:18N 48°08' W 004°19'0 0.3
2017-Mar-18 12:25N 48°08' W 004°19'1 0.6
2017-Mar-18 11:10N 48°07' W 004°20'1 1.0
2017-Mar-18 10:22N 48°07' W 004°19'0 0.3
2017-Mar-18 09:32N 48°07' W 004°18'0 0.3
2017-Mar-18 08:08N 48°07' W 004°19'0 0.2
2017-Mar-18 07:23N 48°07' W 004°19'1 1.6
2017-Mar-18 06:30N 48°06' W 004°20'0 0.0
2017-Mar-17 16:25N 48°06' W 004°19'1 0.6
2017-Mar-17 14:21N 48°07' W 004°19'4 4.6
2017-Mar-17 13:29N 48°11' W 004°20'1 1.1
2017-Mar-17 12:33N 48°10' W 004°18'0 0.5
2017-Mar-17 11:29N 48°10' W 004°19'4 0.4
2017-Mar-17 00:33N 48°06' W 004°20'3 0.3
2017-Mar-16 15:31N 48°08' W 004°18'3 1.4
2017-Mar-16 13:19N 48°11' W 004°19'5 0.6
2017-Mar-16 04:34N 48°06' W 004°20'6 0.5
2017-Mar-15 15:31N 48°11' W 004°26'2 2.4
2017-Mar-15 14:32N 48°13' W 004°25'1 0.6
2017-Mar-15 13:18N 48°13' W 004°26'1 0.6
2017-Mar-15 12:15N 48°13' W 004°25'2 2.7
2017-Mar-15 11:33N 48°12' W 004°23'6 4.3
2017-Mar-15 10:03N 48°06' W 004°28'1 2.8
2017-Mar-15 09:33N 48°07' W 004°26'2 1.5
2017-Mar-15 08:06N 48°06' W 004°30'2 2.4
2017-Mar-15 07:13N 48°07' W 004°26'5 0.4
2017-Mar-14 16:33N 48°09' W 004°19'3 2.8
2017-Mar-14 15:31N 48°11' W 004°19'4 0.7
2017-Mar-14 10:05N 48°08' W 004°18'1 2.0
2017-Mar-14 09:24N 48°09' W 004°18'0 0.3
2017-Mar-14 08:20N 48°09' W 004°18'4 0.1
2017-Mar-13 03:34N 48°06' W 004°20'2 0.2
2017-Mar-12 16:21N 48°08' W 004°18'2 0.3
2017-Mar-12 08:17N 48°07' W 004°20'1 0.1
2017-Mar-12 01:33N 48°06' W 004°20'2 0.2
2017-Mar-11 16:26N 48°07' W 004°18'1 1.0
2017-Mar-11 15:26N 48°08' W 004°18'1 0.8
2017-Mar-11 14:23N 48°07' W 004°18'0 0.3
2017-Mar-11 13:23N 48°08' W 004°18'1 1.4
2017-Mar-11 12:33N 48°09' W 004°17'2 2.3
2017-Mar-11 11:32N 48°08' W 004°20'2 1.9
2017-Mar-11 10:33N 48°08' W 004°18'0 0.3
2017-Mar-11 09:30N 48°07' W 004°18'1 1.4
2017-Mar-11 08:33N 48°09' W 004°18'0 0.5
2017-Mar-11 07:32N 48°08' W 004°18'3 2.7
2017-Mar-11 06:33N 48°06' W 004°19'0 0.0
2017-Mar-11 01:33N 48°06' W 004°20'0 0.0
2017-Mar-10 18:33N 48°06' W 004°20'1 0.7
2017-Mar-10 16:33N 48°07' W 004°18'1 1.4
2017-Mar-10 15:30N 48°08' W 004°18'0 0.3
2017-Mar-10 14:12N 48°08' W 004°18'2 1.3
2017-Mar-10 12:33N 48°10' W 004°18'2 0.9
2017-Mar-10 10:32N 48°08' W 004°18'  
Track history (hours):
 
Tides and Currents Weather Stations Pressure Air Temp Water Temp Dewpoint Dewpoint Depression Visibility Wind Speed Wind Dir Waves Ship Positions

Oceanographic research ship Thalia (France)

Detailed information on ship capabilities available from University of Delaware's Ocean Information Center.

Last reported at 2017-Mar-20 09:29 UTC. Time now 2017-Mar-29 13:12 UTC.
Position N 48°05' W 004°43'.
Warning: this ship's position is 9 days out of date.

Length 25 m; beam 7 m.

MMSI: 227270000.

Date/timePositionNaut miles runAvg speedWind from/ knotsBaromVisibWave heightAir tempDewpointWater temp
2017-Mar-20 09:29N 48°05' W 004°43'10 9.9
2017-Mar-20 08:28N 48°07' W 004°28'5 0.5
2017-Mar-19 21:33N 48°06' W 004°20'0 0.0
2017-Mar-19 20:33N 48°06' W 004°20'0 0.0
2017-Mar-19 11:33N 48°06' W 004°20'0 0.0
2017-Mar-19 05:34N 48°06' W 004°20'0 0.0
2017-Mar-18 21:33N 48°06' W 004°20'2 0.2
2017-Mar-18 13:18N 48°08' W 004°19'0 0.3
2017-Mar-18 12:25N 48°08' W 004°19'1 0.6
2017-Mar-18 11:10N 48°07' W 004°20'1 1.0
2017-Mar-18 10:22N 48°07' W 004°19'0 0.3
2017-Mar-18 09:32N 48°07' W 004°18'0 0.3
2017-Mar-18 08:08N 48°07' W 004°19'0 0.2
2017-Mar-18 07:23N 48°07' W 004°19'1 1.6
2017-Mar-18 06:30N 48°06' W 004°20'0 0.0
2017-Mar-17 16:25N 48°06' W 004°19'1 0.6
2017-Mar-17 14:21N 48°07' W 004°19'4 4.6
2017-Mar-17 13:29N 48°11' W 004°20'1 1.1
2017-Mar-17 12:33N 48°10' W 004°18'0 0.5
2017-Mar-17 11:29N 48°10' W 004°19'4 0.4
2017-Mar-17 00:33N 48°06' W 004°20'3 0.3
2017-Mar-16 15:31N 48°08' W 004°18'3 1.4
2017-Mar-16 13:19N 48°11' W 004°19'5 0.6
2017-Mar-16 04:34N 48°06' W 004°20'6 0.5
2017-Mar-15 15:31N 48°11' W 004°26'2 2.4
2017-Mar-15 14:32N 48°13' W 004°25'1 0.6
2017-Mar-15 13:18N 48°13' W 004°26'1 0.6
2017-Mar-15 12:15N 48°13' W 004°25'2 2.7
2017-Mar-15 11:33N 48°12' W 004°23'6 4.3
2017-Mar-15 10:03N 48°06' W 004°28'1 2.8
2017-Mar-15 09:33N 48°07' W 004°26'2 1.5
2017-Mar-15 08:06N 48°06' W 004°30'2 2.4
2017-Mar-15 07:13N 48°07' W 004°26'5 0.4
2017-Mar-14 16:33N 48°09' W 004°19'3 2.8
2017-Mar-14 15:31N 48°11' W 004°19'4 0.7
2017-Mar-14 10:05N 48°08' W 004°18'1 2.0
2017-Mar-14 09:24N 48°09' W 004°18'0 0.3
2017-Mar-14 08:20N 48°09' W 004°18'4 0.1
2017-Mar-13 03:34N 48°06' W 004°20'2 0.2
2017-Mar-12 16:21N 48°08' W 004°18'2 0.3
2017-Mar-12 08:17N 48°07' W 004°20'1 0.1
2017-Mar-12 01:33N 48°06' W 004°20'2 0.2
2017-Mar-11 16:26N 48°07' W 004°18'1 1.0
2017-Mar-11 15:26N 48°08' W 004°18'1 0.8
2017-Mar-11 14:23N 48°07' W 004°18'0 0.3
2017-Mar-11 13:23N 48°08' W 004°18'1 1.4
2017-Mar-11 12:33N 48°09' W 004°17'2 2.3
2017-Mar-11 11:32N 48°08' W 004°20'2 1.9
2017-Mar-11 10:33N 48°08' W 004°18'0 0.3
2017-Mar-11 09:30N 48°07' W 004°18'1 1.4
2017-Mar-11 08:33N 48°09' W 004°18'0 0.5
2017-Mar-11 07:32N 48°08' W 004°18'3 2.7
2017-Mar-11 06:33N 48°06' W 004°19'0 0.0
2017-Mar-11 01:33N 48°06' W 004°20'0 0.0
2017-Mar-10 18:33N 48°06' W 004°20'1 0.7
2017-Mar-10 16:33N 48°07' W 004°18'1 1.4
2017-Mar-10 15:30N 48°08' W 004°18'0 0.3
2017-Mar-10 14:12N 48°08' W 004°18'2 1.3
2017-Mar-10 12:33N 48°10' W 004°18'2 0.9
2017-Mar-10 10:32N 48°08' W 004°18'  

Dump ship's entire track history